Herndon, Kentucky
Current Conditions -  °F | °C
As of 3:25 AM on Sunday 26 Oct 2014 (Local Time) from KHOP Reporting Station
Clear Clear  
Wind Chill: 55°   Ceiling: Unl
Heat Index: 55°   Visibility: 10mi
Dew Point: 55°   Wind: 0mph
Humidity: 100%   Direction: NA
Pressure: 30"   Gusts: NA
Location:  36.73°N, 87.57°W
Report Text: KHOP 260825Z AUTO 00000KT 10SM CLR 13/13 A3000 RMK AO2
Loading
Personal Weather Stations






























Interactive Weather Map New forecast layout! Learn more

10-Day Weather Forecast

Advertisements
Track Severe Weather on mobile